Time;durP1;ratioP1;P1;durP2;ratioP2;P2;SDS_P1;SDS_P2;PMS_P1;PMS_P2;Temp;Humidity;BMP_temperature;BMP_pressure;BME280_temperature;BME280_humidity;BME280_pressure;Samples;Min_cycle;Max_cycle;Signal;HPM_P1;HPM_P2
2021/05/09 00:00:57;;;;;;;4.53;4.13;;;11.20;99.90;;;;;;4993209;28;20447;-71
2021/05/09 00:03:23;;;;;;;3.57;3.27;;;11.20;99.90;;;;;;4993424;28;20419;-71
2021/05/09 00:05:48;;;;;;;4.80;3.10;;;11.20;99.90;;;;;;4993275;28;20940;-71
2021/05/09 00:08:14;;;;;;;5.17;4.70;;;11.20;99.90;;;;;;4993255;28;20184;-71
2021/05/09 00:10:40;;;;;;;6.70;6.10;;;11.30;99.90;;;;;;4992860;28;20238;-71
2021/05/09 00:13:06;;;;;;;5.97;5.37;;;11.30;99.90;;;;;;4993167;28;20415;-71
2021/05/09 00:15:31;;;;;;;3.93;3.63;;;11.40;99.90;;;;;;4993105;28;20465;-71
2021/05/09 00:17:57;;;;;;;3.20;3.00;;;11.40;99.90;;;;;;4993081;28;20188;-71
2021/05/09 00:20:22;;;;;;;3.10;2.70;;;11.40;99.90;;;;;;4991473;28;20167;-71
2021/05/09 00:22:48;;;;;;;3.53;3.30;;;11.40;99.90;;;;;;4993122;28;20257;-71
2021/05/09 00:25:13;;;;;;;3.60;2.60;;;11.50;99.90;;;;;;4993042;28;20206;-71
2021/05/09 00:27:40;;;;;;;3.20;2.50;;;11.50;99.90;;;;;;4992980;28;20294;-71
2021/05/09 00:30:07;;;;;;;3.37;2.80;;;11.40;99.90;;;;;;4992719;28;20171;-71
2021/05/09 00:32:33;;;;;;;2.70;2.50;;;11.40;99.90;;;;;;4992862;28;20783;-71
2021/05/09 00:34:58;;;;;;;3.63;3.00;;;11.40;99.90;;;;;;4992677;28;20426;-71
2021/05/09 00:37:24;;;;;;;2.60;2.40;;;11.40;99.90;;;;;;4992605;28;20198;-71
2021/05/09 00:39:49;;;;;;;2.00;1.90;;;11.40;99.90;;;;;;4992454;28;20203;-71
2021/05/09 00:42:17;;;;;;;3.73;2.23;;;11.40;99.90;;;;;;4992701;28;20164;-71
2021/05/09 00:44:42;;;;;;;3.73;2.80;;;11.30;99.90;;;;;;4992552;28;20172;-71
2021/05/09 00:47:10;;;;;;;2.90;2.60;;;11.30;99.90;;;;;;4990932;28;20959;-71
2021/05/09 00:49:36;;;;;;;3.20;2.70;;;11.40;99.90;;;;;;4991553;28;20272;-71
2021/05/09 00:52:03;;;;;;;2.70;2.47;;;11.40;99.90;;;;;;4993501;28;20427;-70
2021/05/09 00:54:30;;;;;;;2.10;1.90;;;11.50;99.90;;;;;;4992809;28;20419;-70
2021/05/09 00:56:57;;;;;;;2.83;1.90;;;11.50;99.90;;;;;;4992231;28;20471;-71
2021/05/09 00:59:24;;;;;;;2.40;2.20;;;11.50;99.90;;;;;;4992139;28;20529;-71
2021/05/09 01:01:51;;;;;;;5.50;2.10;;;11.50;99.90;;;;;;4992486;28;20418;-70
2021/05/09 01:04:16;;;;;;;2.50;2.30;;;11.50;99.90;;;;;;4992427;28;20419;-71
2021/05/09 01:06:44;;;;;;;3.13;2.83;;;11.50;99.90;;;;;;4992318;28;20447;-72
2021/05/09 01:09:10;;;;;;;2.63;2.17;;;11.40;99.90;;;;;;4991990;28;20742;-70
2021/05/09 01:11:36;;;;;;;2.40;2.20;;;11.40;99.90;;;;;;4992279;28;20423;-71
2021/05/09 01:14:05;;;;;;;2.30;2.10;;;11.30;99.90;;;;;;4992063;28;20171;-71
2021/05/09 01:16:31;;;;;;;6.13;2.50;;;11.20;99.90;;;;;;4991810;28;20490;-70
2021/05/09 01:18:56;;;;;;;5.90;3.00;;;11.30;99.90;;;;;;4991936;28;20411;-70
2021/05/09 01:21:22;;;;;;;3.33;2.47;;;11.30;99.90;;;;;;4991795;28;20202;-70
2021/05/09 01:23:48;;;;;;;2.50;2.30;;;11.40;99.90;;;;;;4992071;28;20171;-70
2021/05/09 01:26:13;;;;;;;2.93;2.40;;;11.40;99.90;;;;;;4990740;28;20210;-70
2021/05/09 01:28:39;;;;;;;2.80;2.60;;;11.40;99.90;;;;;;4991840;28;20171;-70
2021/05/09 01:31:04;;;;;;;2.97;2.63;;;11.40;99.90;;;;;;4991532;28;20175;-70
2021/05/09 01:33:30;;;;;;;2.03;1.93;;;11.40;99.90;;;;;;4991726;28;20171;-70
2021/05/09 01:35:58;;;;;;;2.30;2.20;;;11.40;99.90;;;;;;4991456;28;20191;-70
2021/05/09 01:38:23;;;;;;;2.57;2.37;;;11.40;99.90;;;;;;4990569;28;20426;-70
2021/05/09 01:40:49;;;;;;;2.50;2.30;;;11.50;99.90;;;;;;4991423;28;20427;-70
2021/05/09 01:43:15;;;;;;;2.97;2.50;;;11.50;99.90;;;;;;4991937;28;20547;-70
2021/05/09 01:45:40;;;;;;;3.10;2.80;;;11.40;99.90;;;;;;4991566;28;20695;-70
2021/05/09 01:48:06;;;;;;;2.43;2.17;;;11.40;99.90;;;;;;4991596;28;20562;-70
2021/05/09 01:50:32;;;;;;;4.67;3.30;;;11.40;99.90;;;;;;4991685;28;20669;-70
2021/05/09 01:53:01;;;;;;;3.00;2.63;;;11.40;99.90;;;;;;4991557;28;20418;-70
2021/05/09 01:55:26;;;;;;;2.80;2.60;;;11.40;99.90;;;;;;4990205;28;20550;-70
2021/05/09 01:57:52;;;;;;;2.50;2.27;;;11.40;99.90;;;;;;4991491;28;20570;-70
2021/05/09 02:00:19;;;;;;;2.30;2.10;;;11.40;99.90;;;;;;4995801;28;20724;-71
2021/05/09 02:02:45;;;;;;;3.57;2.20;;;11.40;99.90;;;;;;4998062;28;20625;-70
2021/05/09 02:05:11;;;;;;;7.03;3.27;;;11.50;99.90;;;;;;5000142;28;20446;-71
2021/05/09 02:07:37;;;;;;;2.90;2.70;;;11.40;99.90;;;;;;4999260;28;20305;-71
2021/05/09 02:10:07;;;;;;;4.43;2.67;;;11.50;99.90;;;;;;5000223;28;20513;-71
2021/05/09 02:12:33;;;;;;;2.53;2.33;;;11.50;99.90;;;;;;5000381;28;20175;-71
2021/05/09 02:14:58;;;;;;;2.40;2.20;;;11.50;99.90;;;;;;4998255;28;20440;-70
2021/05/09 02:17:24;;;;;;;2.60;2.23;;;11.50;99.90;;;;;;4997732;28;20254;-70
2021/05/09 02:19:50;;;;;;;2.90;2.50;;;11.40;99.90;;;;;;4997567;28;20172;-71
2021/05/09 02:22:16;;;;;;;2.63;2.43;;;11.40;99.90;;;;;;4997817;28;20258;-71
2021/05/09 02:24:42;;;;;;;3.07;2.60;;;11.30;99.90;;;;;;4997994;28;20638;-70
2021/05/09 02:27:08;;;;;;;3.90;3.40;;;11.20;99.90;;;;;;4997730;28;20820;-71
2021/05/09 02:29:33;;;;;;;4.00;3.60;;;11.20;99.90;;;;;;4997670;28;20426;-71
2021/05/09 02:31:59;;;;;;;4.73;4.37;;;11.20;99.90;;;;;;4997849;28;20418;-70
2021/05/09 02:34:25;;;;;;;4.67;4.27;;;11.30;99.90;;;;;;4997789;28;20176;-70
2021/05/09 02:36:51;;;;;;;4.80;4.37;;;11.20;99.90;;;;;;4997696;28;20211;-70
2021/05/09 02:39:16;;;;;;;4.43;4.03;;;11.20;99.90;;;;;;4997855;28;20425;-70
2021/05/09 02:41:43;;;;;;;6.43;4.03;;;11.20;99.90;;;;;;4996541;28;20603;-72
2021/05/09 02:44:09;;;;;;;4.00;3.70;;;11.30;99.90;;;;;;4998359;28;20198;-70
2021/05/09 02:46:35;;;;;;;4.70;4.30;;;11.30;99.90;;;;;;4997617;28;20880;-70
2021/05/09 02:49:01;;;;;;;3.83;3.53;;;11.20;99.90;;;;;;4996479;28;20464;-70
2021/05/09 02:51:26;;;;;;;5.00;4.10;;;11.30;99.90;;;;;;4997663;28;20210;-70
2021/05/09 02:53:52;;;;;;;4.67;4.17;;;11.40;99.90;;;;;;4997693;28;20258;-71
2021/05/09 02:56:18;;;;;;;5.10;4.33;;;11.40;99.90;;;;;;4997481;28;20646;-71
2021/05/09 02:58:43;;;;;;;5.03;4.00;;;11.40;99.90;;;;;;4997807;28;20171;-70
2021/05/09 03:01:09;;;;;;;4.50;4.10;;;11.50;99.90;;;;;;4997229;28;20971;-70
2021/05/09 03:03:35;;;;;;;4.47;4.07;;;11.50;99.90;;;;;;4997355;28;20168;-70
2021/05/09 03:06:00;;;;;;;4.10;3.80;;;11.50;99.90;;;;;;4997660;28;20188;-70
2021/05/09 03:08:26;;;;;;;6.80;4.50;;;11.50;99.90;;;;;;4997546;28;20175;-70
2021/05/09 03:10:52;;;;;;;4.00;3.70;;;11.50;99.90;;;;;;4994149;28;20207;-70
2021/05/09 03:13:17;;;;;;;3.57;3.27;;;11.50;99.90;;;;;;4994374;28;20213;-70
2021/05/09 03:15:43;;;;;;;4.07;3.30;;;11.40;99.90;;;;;;4994463;28;20195;-70
2021/05/09 03:18:09;;;;;;;4.23;3.83;;;11.40;99.90;;;;;;4994564;28;20858;-70
2021/05/09 03:20:35;;;;;;;3.23;3.03;;;11.40;99.90;;;;;;4994173;28;20630;-70
2021/05/09 03:23:01;;;;;;;3.60;3.30;;;11.30;99.90;;;;;;4994336;28;20195;-70
2021/05/09 03:25:26;;;;;;;3.57;2.30;;;11.30;99.90;;;;;;4994188;28;20427;-71
2021/05/09 03:27:52;;;;;;;5.87;2.60;;;11.20;99.90;;;;;;4994445;28;20195;-70
2021/05/09 03:30:18;;;;;;;4.17;2.63;;;11.30;99.90;;;;;;4993795;28;20211;-70
2021/05/09 03:32:43;;;;;;;2.87;2.53;;;11.20;99.90;;;;;;4993875;28;20222;-71
2021/05/09 03:35:10;;;;;;;3.53;2.60;;;11.30;99.90;;;;;;4993919;28;20187;-70
2021/05/09 03:37:36;;;;;;;3.10;2.77;;;11.30;99.90;;;;;;4994007;28;20227;-70
2021/05/09 03:40:02;;;;;;;3.00;2.77;;;11.40;99.90;;;;;;4993617;28;20449;-71
2021/05/09 03:42:28;;;;;;;3.27;2.47;;;11.40;99.90;;;;;;4993914;28;20194;-70
2021/05/09 03:44:53;;;;;;;3.13;2.57;;;11.40;99.90;;;;;;4993759;28;20419;-70
2021/05/09 03:47:25;;;;;;;3.37;2.57;;;11.40;99.90;;;;;;4993450;28;20218;-70
2021/05/09 03:49:55;;;;;;;7.60;2.50;;;11.40;99.90;;;;;;4992346;28;20171;-70
2021/05/09 03:52:21;;;;;;;2.77;2.57;;;11.40;99.90;;;;;;4994019;28;20916;-70
2021/05/09 03:54:46;;;;;;;2.50;2.30;;;11.40;99.90;;;;;;4994144;28;20430;-70
2021/05/09 03:57:12;;;;;;;3.60;2.20;;;11.40;99.90;;;;;;4993519;28;20648;-70
2021/05/09 03:59:38;;;;;;;2.30;2.10;;;11.40;99.90;;;;;;4993338;28;20188;-70
2021/05/09 04:02:03;;;;;;;2.37;2.17;;;11.50;99.90;;;;;;4993499;28;20214;-70
2021/05/09 04:04:29;;;;;;;2.60;2.40;;;11.50;99.90;;;;;;4993781;28;20622;-70
2021/05/09 04:06:55;;;;;;;2.90;2.70;;;11.50;99.90;;;;;;4993572;28;20199;-70
2021/05/09 04:09:20;;;;;;;2.93;2.73;;;11.50;99.90;;;;;;4993736;28;20664;-70
2021/05/09 04:11:46;;;;;;;3.03;2.57;;;11.50;99.90;;;;;;4993824;28;20176;-70
2021/05/09 04:14:11;;;;;;;3.30;3.03;;;11.60;99.90;;;;;;4992273;28;20537;-70
2021/05/09 04:16:37;;;;;;;2.63;2.43;;;11.60;99.90;;;;;;4992947;28;20214;-70
2021/05/09 04:19:02;;;;;;;3.07;2.60;;;11.60;99.90;;;;;;4992976;28;20246;-71
2021/05/09 04:21:28;;;;;;;3.07;2.87;;;11.70;99.90;;;;;;4992946;28;20203;-70
2021/05/09 04:23:53;;;;;;;3.57;3.27;;;11.70;99.90;;;;;;4992976;28;20271;-70
2021/05/09 04:26:19;;;;;;;4.73;3.10;;;11.80;99.90;;;;;;4993024;28;20258;-70
2021/05/09 04:28:45;;;;;;;3.10;2.50;;;11.80;99.90;;;;;;4993087;28;20266;-70
2021/05/09 04:31:11;;;;;;;2.60;2.33;;;11.90;99.90;;;;;;4992634;28;20454;-70
2021/05/09 04:33:36;;;;;;;2.77;2.57;;;12.00;99.90;;;;;;4992908;28;20190;-70
2021/05/09 04:36:02;;;;;;;3.70;2.80;;;12.10;99.90;;;;;;4992707;28;20207;-71
2021/05/09 04:38:27;;;;;;;2.90;2.60;;;12.20;99.90;;;;;;4992837;28;20214;-70
2021/05/09 04:40:53;;;;;;;3.83;3.47;;;12.40;99.90;;;;;;4992511;28;20229;-70
2021/05/09 04:43:19;;;;;;;3.03;2.83;;;12.50;99.90;;;;;;4992819;28;20176;-70
2021/05/09 04:45:47;;;;;;;2.37;2.17;;;12.50;99.90;;;;;;4992322;28;20187;-71
2021/05/09 04:48:13;;;;;;;3.37;3.07;;;12.60;99.90;;;;;;4991740;28;20800;-70
2021/05/09 04:50:38;;;;;;;3.37;2.77;;;12.50;99.90;;;;;;4993681;28;20525;-71
2021/05/09 04:53:31;;;;;;;3.83;3.43;;;12.40;99.90;;;;;;4994613;28;20509;-71
2021/05/09 04:56:01;;;;;;;3.50;3.00;;;12.40;99.90;;;;;;4994305;28;20207;-71
2021/05/09 04:58:28;;;;;;;2.90;2.70;;;12.40;99.90;;;;;;4994031;28;20780;-70
2021/05/09 05:01:01;;;;;;;4.43;2.93;;;12.30;99.90;;;;;;4992133;28;20423;-70
2021/05/09 05:03:28;;;;;;;15.03;3.40;;;12.30;99.90;;;;;;4992403;28;20456;-70
2021/05/09 05:05:53;;;;;;;3.20;2.80;;;12.20;99.90;;;;;;4992117;28;20430;-71
2021/05/09 05:08:19;;;;;;;4.57;4.00;;;12.30;99.90;;;;;;4992166;28;20431;-70
2021/05/09 05:10:45;;;;;;;5.67;3.50;;;12.40;99.90;;;;;;4991954;28;20172;-71
2021/05/09 05:13:21;;;;;;;3.77;3.37;;;12.60;99.90;;;;;;4992176;28;20180;-70
2021/05/09 05:15:48;;;;;;;4.10;3.70;;;12.80;99.90;;;;;;4991906;28;20279;-70
2021/05/09 05:18:14;;;;;;;4.60;3.73;;;13.00;99.90;;;;;;4992309;28;20430;-70
2021/05/09 05:20:40;;;;;;;6.07;3.53;;;13.20;99.90;;;;;;4991963;28;20846;-71
2021/05/09 05:23:06;;;;;;;3.90;3.60;;;13.40;99.90;;;;;;4992153;28;20426;-71
2021/05/09 05:25:32;;;;;;;3.93;3.63;;;13.60;99.90;;;;;;4992232;28;20431;-71
2021/05/09 05:27:59;;;;;;;4.80;4.20;;;13.70;99.90;;;;;;4992371;28;20195;-70
2021/05/09 05:30:24;;;;;;;3.70;3.40;;;13.80;99.90;;;;;;4990589;28;20267;-70
2021/05/09 05:32:50;;;;;;;11.93;4.30;;;14.00;99.90;;;;;;4990728;28;20527;-70
2021/05/09 05:35:15;;;;;;;3.70;3.40;;;13.90;99.90;;;;;;4991290;28;20668;-70
2021/05/09 05:37:41;;;;;;;3.20;3.00;;;13.90;99.90;;;;;;4991760;28;20187;-71
2021/05/09 05:40:07;;;;;;;3.73;3.37;;;13.90;99.90;;;;;;4991472;28;20180;-71
2021/05/09 05:42:33;;;;;;;4.40;3.70;;;14.00;99.90;;;;;;4991939;28;20168;-71
2021/05/09 05:44:58;;;;;;;3.40;3.10;;;14.20;99.90;;;;;;4991680;28;20442;-71
2021/05/09 05:47:24;;;;;;;4.60;3.63;;;14.40;99.90;;;;;;4991512;28;20357;-70
2021/05/09 05:49:51;;;;;;;4.57;4.10;;;14.70;99.90;;;;;;4991483;28;20215;-71
2021/05/09 05:52:17;;;;;;;4.60;4.20;;;15.00;99.90;;;;;;4991528;28;20596;-71
2021/05/09 05:54:43;;;;;;;4.13;3.23;;;15.30;99.90;;;;;;4990353;28;20423;-71
2021/05/09 05:57:08;;;;;;;3.70;3.40;;;15.40;99.90;;;;;;4991477;28;20521;-71
2021/05/09 05:59:34;;;;;;;6.90;3.17;;;15.70;99.90;;;;;;4991193;28;20255;-71
2021/05/09 06:01:59;;;;;;;3.63;3.27;;;15.90;99.90;;;;;;4991434;28;20175;-71
2021/05/09 06:04:25;;;;;;;4.10;3.70;;;16.20;99.90;;;;;;4991549;28;20178;-71
2021/05/09 06:06:51;;;;;;;3.63;3.30;;;16.10;99.90;;;;;;4991373;28;20235;-71
2021/05/09 06:09:16;;;;;;;3.20;3.00;;;16.10;99.90;;;;;;4991360;28;20393;-71
2021/05/09 06:11:41;;;;;;;4.80;3.50;;;16.30;99.90;;;;;;4991570;28;20175;-71
2021/05/09 06:14:07;;;;;;;4.00;3.70;;;16.50;99.90;;;;;;4991373;28;20730;-71
2021/05/09 06:16:32;;;;;;;3.60;3.07;;;16.60;99.90;;;;;;4991310;28;20214;-71
2021/05/09 06:18:58;;;;;;;6.60;3.17;;;16.70;99.90;;;;;;4991365;28;20444;-72
2021/05/09 06:21:26;;;;;;;3.70;3.40;;;16.70;99.90;;;;;;4991307;28;20207;-70
2021/05/09 06:23:51;;;;;;;3.13;2.83;;;16.80;99.90;;;;;;4991469;28;20190;-70
2021/05/09 06:26:17;;;;;;;2.83;2.53;;;16.90;99.90;;;;;;4991363;28;20811;-71
2021/05/09 06:28:42;;;;;;;3.90;3.57;;;17.20;99.90;;;;;;4991499;28;20176;-72
2021/05/09 06:31:08;;;;;;;3.50;3.30;;;17.60;99.90;;;;;;4991321;28;20670;-71
2021/05/09 06:33:33;;;;;;;4.13;3.73;;;17.90;99.90;;;;;;4990062;28;20175;-71
2021/05/09 06:35:59;;;;;;;3.30;2.90;;;18.20;99.90;;;;;;4990425;28;20195;-71
2021/05/09 06:38:24;;;;;;;3.10;2.90;;;18.50;99.90;;;;;;4992931;28;20183;-72
2021/05/09 06:40:50;;;;;;;2.60;2.40;;;18.70;99.90;;;;;;4991902;28;20540;-72
2021/05/09 06:43:17;;;;;;;3.10;2.90;;;18.80;99.90;;;;;;4991464;28;20171;-72
2021/05/09 06:45:44;;;;;;;2.83;2.60;;;19.00;99.90;;;;;;4991360;28;20176;-71
2021/05/09 06:48:11;;;;;;;2.63;2.43;;;18.90;99.90;;;;;;4994858;28;20442;-70
2021/05/09 06:50:36;;;;;;;2.50;2.30;;;19.10;99.90;;;;;;4996220;28;20494;-71
2021/05/09 06:53:03;;;;;;;3.93;2.90;;;19.20;99.90;;;;;;4995126;28;20509;-71
2021/05/09 06:55:29;;;;;;;2.90;2.70;;;19.20;99.90;;;;;;4995030;28;20188;-71
2021/05/09 06:57:56;;;;;;;2.93;2.73;;;19.30;99.90;;;;;;4995132;28;20438;-71
2021/05/09 07:00:21;;;;;;;3.50;2.37;;;19.40;99.90;;;;;;4994841;28;20414;-71
2021/05/09 07:02:48;;;;;;;3.00;2.80;;;19.60;99.90;;;;;;4994942;28;20426;-71
2021/05/09 07:05:14;;;;;;;2.60;2.40;;;19.80;99.90;;;;;;4994622;28;20199;-71
2021/05/09 07:07:53;;;;;;;2.40;2.20;;;19.90;99.90;;;;;;4994547;28;20588;-71
2021/05/09 07:10:20;;;;;;;2.10;2.00;;;19.90;99.90;;;;;;4994267;28;20465;-71
2021/05/09 07:12:46;;;;;;;3.10;2.80;;;20.00;99.90;;;;;;4994428;28;20831;-71
2021/05/09 07:15:14;;;;;;;2.50;2.30;;;20.30;99.90;;;;;;4993868;28;20418;-71
2021/05/09 07:17:42;;;;;;;3.70;2.60;;;20.50;99.90;;;;;;4994282;28;20514;-71
2021/05/09 07:20:08;;;;;;;2.40;2.30;;;20.80;99.90;;;;;;4994289;28;20415;-71
2021/05/09 07:22:39;;;;;;;2.87;2.30;;;21.10;99.40;;;;;;4994622;28;20419;-71
2021/05/09 07:25:04;;;;;;;2.10;2.00;;;21.00;98.00;;;;;;4994303;28;20414;-71
2021/05/09 07:27:30;;;;;;;2.90;2.40;;;21.20;98.30;;;;;;4992994;28;20988;-71
2021/05/09 07:29:55;;;;;;;3.00;2.50;;;21.60;97.70;;;;;;4994001;28;20182;-71
2021/05/09 07:32:21;;;;;;;2.70;1.97;;;21.80;97.20;;;;;;4994176;28;20175;-71
2021/05/09 07:34:46;;;;;;;2.40;2.20;;;21.90;96.60;;;;;;4994245;28;20176;-72
2021/05/09 07:37:12;;;;;;;3.93;2.10;;;21.90;95.90;;;;;;4993981;28;20582;-71
2021/05/09 07:39:37;;;;;;;2.90;2.70;;;22.00;95.60;;;;;;4994046;28;20176;-71
2021/05/09 07:42:03;;;;;;;3.83;2.73;;;22.00;95.10;;;;;;4993824;28;20668;-71
2021/05/09 07:44:29;;;;;;;4.63;3.13;;;21.90;95.50;;;;;;4993783;28;20171;-72
2021/05/09 07:46:54;;;;;;;3.27;2.37;;;21.90;94.70;;;;;;4993403;28;20715;-72
2021/05/09 07:49:20;;;;;;;2.20;2.10;;;22.00;94.10;;;;;;4993440;28;20262;-72
2021/05/09 07:51:45;;;;;;;2.10;1.87;;;22.40;93.40;;;;;;4993622;28;20679;-72
2021/05/09 07:54:11;;;;;;;2.23;2.13;;;22.60;92.90;;;;;;4992324;28;20249;-72
2021/05/09 07:56:37;;;;;;;3.97;3.20;;;22.60;92.50;;;;;;4993302;28;20203;-72
2021/05/09 07:59:03;;;;;;;2.60;2.00;;;22.90;92.50;;;;;;4993004;28;20175;-72
2021/05/09 08:01:29;;;;;;;3.33;2.30;;;22.80;91.10;;;;;;4993829;28;20411;-72
2021/05/09 08:03:55;;;;;;;2.33;2.13;;;23.10;91.40;;;;;;4993406;28;20784;-72
2021/05/09 08:06:21;;;;;;;4.67;2.27;;;23.20;90.90;;;;;;4991935;28;20249;-72
2021/05/09 08:08:46;;;;;;;2.30;2.10;;;23.50;90.70;;;;;;4993315;28;21020;-72
2021/05/09 08:11:12;;;;;;;2.67;2.00;;;23.40;86.70;;;;;;4993019;28;20179;-72
2021/05/09 08:13:38;;;;;;;2.80;2.60;;;23.40;87.10;;;;;;4993185;28;20274;-72
2021/05/09 08:16:04;;;;;;;2.97;2.50;;;23.60;86.00;;;;;;4992418;28;20282;-72
2021/05/09 08:18:31;;;;;;;2.33;1.73;;;23.90;84.40;;;;;;4993074;28;20847;-72
2021/05/09 08:20:57;;;;;;;2.50;2.30;;;24.30;83.30;;;;;;4992783;28;20450;-72
2021/05/09 08:23:23;;;;;;;4.40;2.00;;;24.50;83.10;;;;;;4993203;28;20419;-72
2021/05/09 08:25:49;;;;;;;3.00;2.50;;;24.70;81.10;;;;;;4991721;28;20458;-72
2021/05/09 08:28:15;;;;;;;3.23;2.10;;;24.90;80.00;;;;;;4992954;28;20661;-72
2021/05/09 08:30:40;;;;;;;3.20;2.23;;;24.80;77.80;;;;;;4992792;28;20656;-72
2021/05/09 08:33:06;;;;;;;2.33;2.13;;;25.00;79.30;;;;;;4992969;28;20423;-72
2021/05/09 08:35:32;;;;;;;1.90;1.80;;;25.10;78.80;;;;;;4992842;28;20200;-72
2021/05/09 08:37:57;;;;;;;2.70;2.50;;;25.30;76.90;;;;;;4992759;28;20642;-72
2021/05/09 08:40:23;;;;;;;2.20;2.00;;;25.40;78.00;;;;;;4991628;28;20195;-72
2021/05/09 08:42:50;;;;;;;2.40;2.20;;;25.50;76.70;;;;;;4992776;28;20218;-72
2021/05/09 08:45:17;;;;;;;1.87;1.77;;;25.60;76.10;;;;;;4992683;28;20255;-72
2021/05/09 08:47:43;;;;;;;2.03;1.93;;;25.70;75.60;;;;;;4992593;28;20461;-72
2021/05/09 08:50:20;;;;;;;2.40;2.20;;;25.80;73.90;;;;;;4992647;28;20430;-72
2021/05/09 08:52:48;;;;;;;2.47;1.53;;;25.80;72.50;;;;;;4993023;28;20414;-72
2021/05/09 08:55:16;;;;;;;2.60;2.10;;;26.00;72.10;;;;;;4992566;28;20423;-72
2021/05/09 08:57:43;;;;;;;2.00;1.60;;;26.50;70.60;;;;;;4992562;28;20438;-71
2021/05/09 09:00:11;;;;;;;2.40;2.20;;;26.60;66.30;;;;;;4992299;28;20415;-72
2021/05/09 09:02:39;;;;;;;3.37;1.93;;;27.00;68.20;;;;;;4992526;28;20419;-72
2021/05/09 09:05:05;;;;;;;1.67;1.57;;;27.20;65.00;;;;;;4992444;28;20418;-73
2021/05/09 09:07:51;;;;;;;2.80;2.17;;;27.20;64.30;;;;;;4992736;28;21022;-72
2021/05/09 09:10:31;;;;;;;3.10;1.93;;;27.20;63.40;;;;;;4991373;28;20214;-72
2021/05/09 09:13:01;;;;;;;3.60;1.80;;;27.20;61.40;;;;;;4992626;28;20453;-72
2021/05/09 09:16:04;;;;;;;2.10;1.90;;;27.40;60.30;;;;;;4992468;28;20967;-72
2021/05/09 09:18:36;;;;;;;3.10;1.67;;;27.90;58.50;;;;;;4992395;28;20418;-73
2021/05/09 09:21:27;;;;;;;2.80;1.97;;;28.00;55.20;;;;;;4992012;28;20407;-72
2021/05/09 09:24:11;;;;;;;1.70;1.50;;;28.20;51.50;;;;;;4992448;28;20417;-72
2021/05/09 09:26:49;;;;;;;2.73;2.53;;;28.00;51.60;;;;;;4992350;28;20446;-72
2021/05/09 09:29:33;;;;;;;2.33;2.10;;;28.60;50.50;;;;;;4991887;28;20938;-72
2021/05/09 09:32:02;;;;;;;3.47;2.60;;;29.00;50.00;;;;;;4993039;28;20441;-72
2021/05/09 09:34:45;;;;;;;2.97;2.60;;;28.90;48.00;;;;;;4993051;28;20553;-72
2021/05/09 09:37:13;;;;;;;2.83;2.00;;;29.10;47.70;;;;;;4991723;28;20462;-72
2021/05/09 09:39:58;;;;;;;1.80;1.70;;;29.40;47.30;;;;;;4991515;28;20419;-72
2021/05/09 09:42:37;;;;;;;1.77;1.57;;;29.50;46.20;;;;;;4991845;28;20790;-73
2021/05/09 09:45:20;;;;;;;2.90;2.60;;;29.60;45.60;;;;;;4991597;28;20414;-72
2021/05/09 09:47:52;;;;;;;2.10;1.97;;;29.70;45.10;;;;;;4991388;28;21023;-73
2021/05/09 09:50:40;;;;;;;3.77;1.83;;;30.30;44.50;;;;;;4991345;28;20454;-72
2021/05/09 09:53:32;;;;;;;2.33;2.13;;;31.00;43.90;;;;;;4991569;28;20430;-73
2021/05/09 09:56:10;;;;;;;1.83;1.70;;;31.60;43.00;;;;;;4991345;28;20458;-72
2021/05/09 09:58:48;;;;;;;2.67;2.30;;;32.00;42.00;;;;;;4991504;28;20497;-72
2021/05/09 10:01:18;;;;;;;1.73;1.60;;;32.10;40.60;;;;;;4991319;28;20418;-72
2021/05/09 10:03:46;;;;;;;2.33;1.57;;;32.40;40.40;;;;;;4991537;28;20422;-72
2021/05/09 10:06:11;;;;;;;2.00;1.90;;;33.10;39.50;;;;;;4991433;28;20474;-72
2021/05/09 10:08:37;;;;;;;2.30;2.10;;;32.40;39.00;;;;;;4991538;28;20517;-72
2021/05/09 10:11:05;;;;;;;2.10;2.00;;;31.50;39.50;;;;;;4992084;28;20163;-72
2021/05/09 10:13:34;;;;;;;3.23;1.90;;;31.50;40.00;;;;;;4992189;28;20771;-72
2021/05/09 10:16:01;;;;;;;2.93;2.60;;;31.70;39.80;;;;;;4991443;28;20963;-72
2021/05/09 10:18:27;;;;;;;3.57;3.37;;;32.70;40.10;;;;;;4991610;28;20446;-72
2021/05/09 10:20:54;;;;;;;2.07;1.87;;;33.60;39.10;;;;;;4993041;28;20436;-72
2021/05/09 10:23:20;;;;;;;1.90;1.80;;;33.60;37.20;;;;;;4995428;28;20418;-72
2021/05/09 10:25:51;;;;;;;2.83;2.67;;;33.20;36.50;;;;;;4995981;28;20472;-72
2021/05/09 10:28:25;;;;;;;2.97;2.70;;;34.20;37.10;;;;;;4995374;28;20935;-72
2021/05/09 10:30:56;;;;;;;2.50;2.30;;;34.10;36.40;;;;;;4995171;28;20506;-72
2021/05/09 10:33:42;;;;;;;5.33;2.53;;;33.90;37.10;;;;;;4995267;28;20422;-72
2021/05/09 10:36:20;;;;;;;2.07;1.97;;;34.90;35.50;;;;;;4995058;28;20557;-72
2021/05/09 10:39:05;;;;;;;1.90;1.67;;;35.40;35.30;;;;;;4995286;28;20446;-72
2021/05/09 10:41:31;;;;;;;2.00;1.90;;;33.60;34.70;;;;;;4995214;28;20509;-72
2021/05/09 10:43:56;;;;;;;3.03;1.60;;;32.90;35.50;;;;;;4995003;28;20554;-72
2021/05/09 10:46:22;;;;;;;2.60;2.40;;;33.10;35.90;;;;;;4994649;28;20568;-72
2021/05/09 10:49:08;;;;;;;2.80;2.30;;;34.20;35.90;;;;;;4994772;28;20175;-72
2021/05/09 10:51:33;;;;;;;2.83;2.63;;;35.20;35.10;;;;;;4994832;28;20242;-72
2021/05/09 10:54:18;;;;;;;2.80;2.60;;;36.70;33.90;;;;;;4994791;28;20418;-72
2021/05/09 10:56:45;;;;;;;2.27;2.07;;;36.10;33.80;;;;;;4995137;28;20660;-72
2021/05/09 10:59:10;;;;;;;2.10;2.00;;;36.00;32.80;;;;;;4994397;28;20951;-72
2021/05/09 11:01:36;;;;;;;2.30;1.87;;;35.00;33.60;;;;;;4994808;28;20415;-72
2021/05/09 11:04:09;;;;;;;1.87;1.77;;;35.30;33.90;;;;;;4994878;28;20205;-72
2021/05/09 11:06:43;;;;;;;2.07;1.97;;;36.50;32.80;;;;;;4994475;28;20430;-72
2021/05/09 11:09:21;;;;;;;1.80;1.70;;;37.30;32.10;;;;;;4994285;28;20418;-72
2021/05/09 11:11:46;;;;;;;1.97;1.73;;;37.30;32.60;;;;;;4994512;28;20446;-73
2021/05/09 11:14:12;;;;;;;1.60;1.50;;;37.00;31.30;;;;;;4994376;28;20443;-72
2021/05/09 11:16:55;;;;;;;1.80;1.70;;;38.30;31.30;;;;;;4994278;28;20712;-72
2021/05/09 11:19:23;;;;;;;1.60;1.50;;;38.80;31.00;;;;;;4993970;28;20171;-72
2021/05/09 11:21:54;;;;;;;2.00;1.90;;;38.50;29.60;;;;;;4994293;28;20444;-72
2021/05/09 11:24:23;;;;;;;2.80;1.73;;;38.00;30.40;;;;;;4994431;28;20418;-72
2021/05/09 11:26:50;;;;;;;4.23;3.83;;;38.40;31.10;;;;;;4994172;28;20442;-72
2021/05/09 11:29:24;;;;;;;2.47;2.27;;;38.70;30.00;;;;;;4994255;28;20426;-72
2021/05/09 11:32:07;;;;;;;3.33;2.10;;;37.50;29.70;;;;;;4993260;28;20415;-72
2021/05/09 11:34:32;;;;;;;1.70;1.60;;;36.40;30.30;;;;;;4994073;28;20473;-72
2021/05/09 11:36:58;;;;;;;4.60;4.30;;;36.90;30.00;;;;;;4993877;28;20466;-72
2021/05/09 11:39:30;;;;;;;3.03;2.57;;;38.20;30.30;;;;;;4993795;28;20259;-72
2021/05/09 11:42:03;;;;;;;2.17;1.97;;;38.90;29.70;;;;;;4993984;28;20414;-73
2021/05/09 11:44:33;;;;;;;2.00;1.80;;;38.80;29.30;;;;;;4993751;28;20955;-72
2021/05/09 11:47:02;;;;;;;2.37;2.23;;;37.50;29.80;;;;;;4993782;28;20494;-72
2021/05/09 11:49:31;;;;;;;3.00;2.80;;;37.50;29.50;;;;;;4993593;28;20489;-73
2021/05/09 11:52:18;;;;;;;2.20;2.00;;;38.00;30.20;;;;;;4992427;28;20427;-73
2021/05/09 11:54:49;;;;;;;2.20;1.87;;;38.60;29.30;;;;;;4993711;28;20422;-73
2021/05/09 11:57:17;;;;;;;1.93;1.80;;;39.60;28.80;;;;;;4993672;28;20465;-73
2021/05/09 11:59:50;;;;;;;2.50;2.27;;;39.50;28.70;;;;;;4993157;28;20786;-72
2021/05/09 12:02:20;;;;;;;2.33;2.13;;;38.90;28.90;;;;;;4993560;28;20498;-72
2021/05/09 12:04:55;;;;;;;1.63;1.53;;;37.70;28.90;;;;;;4992166;28;20411;-73
2021/05/09 12:07:32;;;;;;;2.67;1.90;;;36.90;29.20;;;;;;4993177;28;20434;-72
2021/05/09 12:10:07;;;;;;;1.90;1.80;;;36.20;29.90;;;;;;4993148;28;20422;-72
2021/05/09 12:12:36;;;;;;;1.93;1.73;;;36.30;29.80;;;;;;4993201;28;20441;-73
2021/05/09 12:15:07;;;;;;;2.33;2.13;;;38.20;29.70;;;;;;4993265;28;20433;-72
2021/05/09 12:17:33;;;;;;;1.93;1.83;;;38.90;29.10;;;;;;4991860;28;20466;-72
2021/05/09 12:19:58;;;;;;;1.57;1.57;;;38.00;29.50;;;;;;4992774;28;20411;-73
2021/05/09 12:22:24;;;;;;;1.60;1.50;;;37.60;29.30;;;;;;4993385;28;20481;-72
2021/05/09 12:24:54;;;;;;;1.80;1.70;;;36.90;29.20;;;;;;4993397;28;20168;-72
2021/05/09 12:27:21;;;;;;;1.83;1.73;;;36.80;28.90;;;;;;4992963;28;20928;-73
2021/05/09 12:29:49;;;;;;;2.50;2.23;;;37.30;29.40;;;;;;4992626;28;20429;-73
2021/05/09 12:32:25;;;;;;;2.23;2.03;;;40.20;28.90;;;;;;4992919;28;20438;-72
2021/05/09 12:35:12;;;;;;;1.70;1.60;;;42.20;27.90;;;;;;4992996;28;20796;-72
2021/05/09 12:37:46;;;;;;;2.00;1.90;;;38.60;27.90;;;;;;4992945;28;20458;-73
2021/05/09 12:40:27;;;;;;;1.90;1.80;;;37.70;28.60;;;;;;4992438;28;20415;-73
2021/05/09 12:42:56;;;;;;;3.00;2.43;;;37.90;28.90;;;;;;4992576;28;20414;-72
2021/05/09 12:45:44;;;;;;;1.90;1.80;;;37.80;28.50;;;;;;4991392;28;20422;-72
2021/05/09 12:48:15;;;;;;;2.03;1.93;;;37.60;29.00;;;;;;4991157;28;21055;-72
2021/05/09 12:50:52;;;;;;;1.90;1.80;;;37.40;28.70;;;;;;4992843;28;20407;-72
2021/05/09 12:53:37;;;;;;;2.40;2.10;;;36.50;29.40;;;;;;4992786;28;20403;-72